sensor_id;sensor_type;location;lat;lon;timestamp;P1;durP1;ratioP1;P2;durP2;ratioP2
15624;SDS011;7912;51.376;6.126;2023-03-01T00:01:15;12.33;;;7.80;;
15624;SDS011;7912;51.376;6.126;2023-03-01T00:07:11;8.60;;;7.80;;
15624;SDS011;7912;51.376;6.126;2023-03-01T00:09:39;6.87;;;6.17;;
15624;SDS011;7912;51.376;6.126;2023-03-01T00:14:52;9.13;;;7.40;;
15624;SDS011;7912;51.376;6.126;2023-03-01T00:17:19;8.63;;;7.70;;
15624;SDS011;7912;51.376;6.126;2023-03-01T00:19:46;8.90;;;8.00;;
15624;SDS011;7912;51.376;6.126;2023-03-01T00:22:13;7.67;;;6.83;;
15624;SDS011;7912;51.376;6.126;2023-03-01T00:24:41;9.13;;;7.10;;
15624;SDS011;7912;51.376;6.126;2023-03-01T00:27:08;7.80;;;7.00;;
15624;SDS011;7912;51.376;6.126;2023-03-01T00:29:35;7.60;;;6.80;;
15624;SDS011;7912;51.376;6.126;2023-03-01T00:32:03;7.67;;;6.83;;
15624;SDS011;7912;51.376;6.126;2023-03-01T00:34:30;7.40;;;6.63;;
15624;SDS011;7912;51.376;6.126;2023-03-01T00:37:00;7.80;;;6.60;;
15624;SDS011;7912;51.376;6.126;2023-03-01T00:39:31;7.73;;;6.93;;
15624;SDS011;7912;51.376;6.126;2023-03-01T00:41:59;8.27;;;7.47;;
15624;SDS011;7912;51.376;6.126;2023-03-01T00:44:26;8.40;;;7.20;;
15624;SDS011;7912;51.376;6.126;2023-03-01T00:46:54;8.73;;;7.30;;
15624;SDS011;7912;51.376;6.126;2023-03-01T00:49:22;7.43;;;6.73;;
15624;SDS011;7912;51.376;6.126;2023-03-01T00:51:50;7.90;;;7.10;;
15624;SDS011;7912;51.376;6.126;2023-03-01T00:57:04;7.97;;;7.17;;
15624;SDS011;7912;51.376;6.126;2023-03-01T01:03:01;7.03;;;6.30;;
15624;SDS011;7912;51.376;6.126;2023-03-01T01:05:30;8.37;;;7.20;;
15624;SDS011;7912;51.376;6.126;2023-03-01T01:08:01;10.67;;;7.87;;
15624;SDS011;7912;51.376;6.126;2023-03-01T01:10:29;7.80;;;6.97;;
15624;SDS011;7912;51.376;6.126;2023-03-01T01:12:56;9.40;;;7.70;;
15624;SDS011;7912;51.376;6.126;2023-03-01T01:15:24;8.53;;;7.30;;
15624;SDS011;7912;51.376;6.126;2023-03-01T01:21:07;8.43;;;7.13;;
15624;SDS011;7912;51.376;6.126;2023-03-01T01:23:41;8.73;;;6.93;;
15624;SDS011;7912;51.376;6.126;2023-03-01T01:26:11;8.20;;;7.40;;
15624;SDS011;7912;51.376;6.126;2023-03-01T01:32:47;11.80;;;7.87;;
15624;SDS011;7912;51.376;6.126;2023-03-01T01:35:14;9.13;;;7.77;;
15624;SDS011;7912;51.376;6.126;2023-03-01T01:37:41;8.77;;;7.87;;
15624;SDS011;7912;51.376;6.126;2023-03-01T01:40:09;9.03;;;7.93;;
15624;SDS011;7912;51.376;6.126;2023-03-01T01:42:37;10.63;;;8.07;;
15624;SDS011;7912;51.376;6.126;2023-03-01T01:48:04;11.07;;;8.53;;
15624;SDS011;7912;51.376;6.126;2023-03-01T01:50:39;10.87;;;7.90;;
15624;SDS011;7912;51.376;6.126;2023-03-01T01:53:09;10.57;;;8.30;;
15624;SDS011;7912;51.376;6.126;2023-03-01T01:55:45;8.80;;;7.90;;
15624;SDS011;7912;51.376;6.126;2023-03-01T01:58:23;9.93;;;8.33;;
15624;SDS011;7912;51.376;6.126;2023-03-01T02:04:18;10.30;;;8.07;;
15624;SDS011;7912;51.376;6.126;2023-03-01T02:06:48;9.67;;;8.00;;
15624;SDS011;7912;51.376;6.126;2023-03-01T02:09:24;8.97;;;8.07;;
15624;SDS011;7912;51.376;6.126;2023-03-01T02:11:53;8.90;;;7.97;;
15624;SDS011;7912;51.376;6.126;2023-03-01T02:14:21;11.47;;;8.50;;
15624;SDS011;7912;51.376;6.126;2023-03-01T02:16:48;8.93;;;7.80;;
15624;SDS011;7912;51.376;6.126;2023-03-01T02:19:21;10.13;;;8.17;;
15624;SDS011;7912;51.376;6.126;2023-03-01T02:22:22;8.93;;;8.03;;
15624;SDS011;7912;51.376;6.126;2023-03-01T02:28:22;10.03;;;8.30;;
15624;SDS011;7912;51.376;6.126;2023-03-01T02:30:45;8.20;;;7.40;;
15624;SDS011;7912;51.376;6.126;2023-03-01T02:37:16;8.87;;;7.97;;
15624;SDS011;7912;51.376;6.126;2023-03-01T02:42:52;8.90;;;8.10;;
15624;SDS011;7912;51.376;6.126;2023-03-01T02:45:24;9.13;;;8.23;;
15624;SDS011;7912;51.376;6.126;2023-03-01T02:47:56;9.10;;;8.20;;
15624;SDS011;7912;51.376;6.126;2023-03-01T02:53:00;9.50;;;8.50;;
15624;SDS011;7912;51.376;6.126;2023-03-01T02:58:20;9.80;;;8.40;;
15624;SDS011;7912;51.376;6.126;2023-03-01T03:00:48;8.80;;;7.90;;
15624;SDS011;7912;51.376;6.126;2023-03-01T03:03:17;9.87;;;8.43;;
15624;SDS011;7912;51.376;6.126;2023-03-01T03:05:46;9.07;;;8.17;;
15624;SDS011;7912;51.376;6.126;2023-03-01T03:08:14;8.40;;;7.50;;
15624;SDS011;7912;51.376;6.126;2023-03-01T03:10:50;9.57;;;8.47;;
15624;SDS011;7912;51.376;6.126;2023-03-01T03:13:17;9.43;;;8.10;;
15624;SDS011;7912;51.376;6.126;2023-03-01T03:19:45;9.17;;;8.10;;
15624;SDS011;7912;51.376;6.126;2023-03-01T03:22:12;9.20;;;8.30;;
15624;SDS011;7912;51.376;6.126;2023-03-01T03:24:39;10.23;;;8.40;;
15624;SDS011;7912;51.376;6.126;2023-03-01T03:27:07;9.07;;;8.17;;
15624;SDS011;7912;51.376;6.126;2023-03-01T03:29:34;9.10;;;8.10;;
15624;SDS011;7912;51.376;6.126;2023-03-01T03:32:02;9.70;;;8.67;;
15624;SDS011;7912;51.376;6.126;2023-03-01T03:34:30;9.23;;;8.33;;
15624;SDS011;7912;51.376;6.126;2023-03-01T03:36:57;9.83;;;8.33;;
15624;SDS011;7912;51.376;6.126;2023-03-01T03:39:26;10.97;;;8.60;;
15624;SDS011;7912;51.376;6.126;2023-03-01T03:42:01;9.83;;;8.67;;
15624;SDS011;7912;51.376;6.126;2023-03-01T03:44:28;8.90;;;7.87;;
15624;SDS011;7912;51.376;6.126;2023-03-01T03:46:55;9.20;;;8.30;;
15624;SDS011;7912;51.376;6.126;2023-03-01T03:49:23;8.93;;;8.03;;
15624;SDS011;7912;51.376;6.126;2023-03-01T03:54:40;9.03;;;7.80;;
15624;SDS011;7912;51.376;6.126;2023-03-01T03:57:07;9.47;;;8.03;;
15624;SDS011;7912;51.376;6.126;2023-03-01T04:02:41;9.17;;;8.23;;
15624;SDS011;7912;51.376;6.126;2023-03-01T04:05:10;9.27;;;8.37;;
15624;SDS011;7912;51.376;6.126;2023-03-01T04:07:43;8.87;;;7.93;;
15624;SDS011;7912;51.376;6.126;2023-03-01T04:10:13;9.97;;;8.70;;
15624;SDS011;7912;51.376;6.126;2023-03-01T04:15:52;10.40;;;8.60;;
15624;SDS011;7912;51.376;6.126;2023-03-01T04:18:22;10.00;;;8.93;;
15624;SDS011;7912;51.376;6.126;2023-03-01T04:20:52;11.17;;;9.07;;
15624;SDS011;7912;51.376;6.126;2023-03-01T04:23:21;10.23;;;8.37;;
15624;SDS011;7912;51.376;6.126;2023-03-01T04:25:50;9.10;;;8.10;;
15624;SDS011;7912;51.376;6.126;2023-03-01T04:28:28;9.60;;;8.70;;
15624;SDS011;7912;51.376;6.126;2023-03-01T04:31:05;9.53;;;8.50;;
15624;SDS011;7912;51.376;6.126;2023-03-01T04:33:51;9.27;;;8.27;;
15624;SDS011;7912;51.376;6.126;2023-03-01T04:36:22;8.70;;;7.80;;
15624;SDS011;7912;51.376;6.126;2023-03-01T04:38:54;9.90;;;8.60;;
15624;SDS011;7912;51.376;6.126;2023-03-01T04:41:23;10.27;;;8.63;;
15624;SDS011;7912;51.376;6.126;2023-03-01T04:43:51;9.80;;;8.50;;
15624;SDS011;7912;51.376;6.126;2023-03-01T04:46:19;9.60;;;8.60;;
15624;SDS011;7912;51.376;6.126;2023-03-01T04:48:55;10.73;;;8.43;;
15624;SDS011;7912;51.376;6.126;2023-03-01T04:51:22;9.40;;;8.50;;
15624;SDS011;7912;51.376;6.126;2023-03-01T04:53:49;10.37;;;8.60;;
15624;SDS011;7912;51.376;6.126;2023-03-01T04:56:19;9.77;;;8.70;;
15624;SDS011;7912;51.376;6.126;2023-03-01T04:58:53;9.53;;;8.43;;
15624;SDS011;7912;51.376;6.126;2023-03-01T05:01:21;9.33;;;8.37;;
15624;SDS011;7912;51.376;6.126;2023-03-01T05:03:49;11.30;;;8.67;;
15624;SDS011;7912;51.376;6.126;2023-03-01T05:06:19;9.87;;;8.27;;
15624;SDS011;7912;51.376;6.126;2023-03-01T05:08:47;9.50;;;7.87;;
15624;SDS011;7912;51.376;6.126;2023-03-01T05:11:15;9.53;;;8.53;;
15624;SDS011;7912;51.376;6.126;2023-03-01T05:13:42;9.87;;;8.33;;
15624;SDS011;7912;51.376;6.126;2023-03-01T05:16:10;9.87;;;8.87;;
15624;SDS011;7912;51.376;6.126;2023-03-01T05:18:40;10.97;;;8.93;;
15624;SDS011;7912;51.376;6.126;2023-03-01T05:21:09;9.83;;;8.53;;
15624;SDS011;7912;51.376;6.126;2023-03-01T05:23:42;9.27;;;8.37;;
15624;SDS011;7912;51.376;6.126;2023-03-01T05:26:10;9.63;;;8.57;;
15624;SDS011;7912;51.376;6.126;2023-03-01T05:28:59;12.13;;;8.73;;
15624;SDS011;7912;51.376;6.126;2023-03-01T05:31:27;10.43;;;8.70;;
15624;SDS011;7912;51.376;6.126;2023-03-01T05:33:57;9.57;;;8.60;;
15624;SDS011;7912;51.376;6.126;2023-03-01T05:36:24;10.07;;;9.07;;
15624;SDS011;7912;51.376;6.126;2023-03-01T05:38:51;11.73;;;8.87;;
15624;SDS011;7912;51.376;6.126;2023-03-01T05:41:18;10.53;;;8.57;;
15624;SDS011;7912;51.376;6.126;2023-03-01T05:43:46;10.07;;;8.57;;
15624;SDS011;7912;51.376;6.126;2023-03-01T05:46:13;10.23;;;8.57;;
15624;SDS011;7912;51.376;6.126;2023-03-01T05:48:41;12.03;;;8.73;;
15624;SDS011;7912;51.376;6.126;2023-03-01T05:51:09;10.07;;;8.70;;
15624;SDS011;7912;51.376;6.126;2023-03-01T05:53:38;10.93;;;8.30;;
15624;SDS011;7912;51.376;6.126;2023-03-01T05:56:05;10.13;;;9.03;;
15624;SDS011;7912;51.376;6.126;2023-03-01T05:58:33;11.90;;;10.23;;
15624;SDS011;7912;51.376;6.126;2023-03-01T06:01:00;41.30;;;23.37;;
15624;SDS011;7912;51.376;6.126;2023-03-01T06:03:27;14.20;;;11.93;;
15624;SDS011;7912;51.376;6.126;2023-03-01T06:05:56;14.53;;;12.63;;
15624;SDS011;7912;51.376;6.126;2023-03-01T06:08:24;11.43;;;8.90;;
15624;SDS011;7912;51.376;6.126;2023-03-01T06:10:53;12.37;;;9.70;;
15624;SDS011;7912;51.376;6.126;2023-03-01T06:13:21;10.47;;;9.37;;
15624;SDS011;7912;51.376;6.126;2023-03-01T06:15:49;13.70;;;9.60;;
15624;SDS011;7912;51.376;6.126;2023-03-01T06:18:17;11.17;;;9.57;;
15624;SDS011;7912;51.376;6.126;2023-03-01T06:20:45;11.40;;;9.43;;
15624;SDS011;7912;51.376;6.126;2023-03-01T06:23:19;12.43;;;10.57;;
15624;SDS011;7912;51.376;6.126;2023-03-01T06:25:46;12.53;;;9.67;;
15624;SDS011;7912;51.376;6.126;2023-03-01T06:28:14;13.57;;;10.37;;
15624;SDS011;7912;51.376;6.126;2023-03-01T06:30:41;11.63;;;9.37;;
15624;SDS011;7912;51.376;6.126;2023-03-01T06:33:08;11.00;;;9.70;;
15624;SDS011;7912;51.376;6.126;2023-03-01T06:35:35;12.30;;;9.53;;
15624;SDS011;7912;51.376;6.126;2023-03-01T06:38:03;11.57;;;8.73;;
15624;SDS011;7912;51.376;6.126;2023-03-01T06:40:31;11.90;;;9.70;;
15624;SDS011;7912;51.376;6.126;2023-03-01T06:43:01;12.07;;;10.00;;
15624;SDS011;7912;51.376;6.126;2023-03-01T06:45:29;10.73;;;9.20;;
15624;SDS011;7912;51.376;6.126;2023-03-01T06:48:03;9.53;;;8.33;;
15624;SDS011;7912;51.376;6.126;2023-03-01T06:50:33;11.53;;;9.30;;
15624;SDS011;7912;51.376;6.126;2023-03-01T06:57:12;11.10;;;9.37;;
15624;SDS011;7912;51.376;6.126;2023-03-01T06:59:40;10.93;;;9.03;;
15624;SDS011;7912;51.376;6.126;2023-03-01T07:02:09;11.63;;;9.43;;
15624;SDS011;7912;51.376;6.126;2023-03-01T07:04:41;10.33;;;9.23;;
15624;SDS011;7912;51.376;6.126;2023-03-01T07:07:10;11.10;;;9.47;;
15624;SDS011;7912;51.376;6.126;2023-03-01T07:09:37;11.13;;;9.93;;
15624;SDS011;7912;51.376;6.126;2023-03-01T07:12:05;10.90;;;9.80;;
15624;SDS011;7912;51.376;6.126;2023-03-01T07:14:33;13.13;;;10.13;;
15624;SDS011;7912;51.376;6.126;2023-03-01T07:17:00;12.40;;;9.10;;
15624;SDS011;7912;51.376;6.126;2023-03-01T07:22:32;12.03;;;9.40;;
15624;SDS011;7912;51.376;6.126;2023-03-01T07:25:00;11.97;;;9.60;;
15624;SDS011;7912;51.376;6.126;2023-03-01T07:27:27;12.53;;;10.13;;
15624;SDS011;7912;51.376;6.126;2023-03-01T07:29:54;11.83;;;9.30;;
15624;SDS011;7912;51.376;6.126;2023-03-01T07:32:22;10.20;;;9.13;;
15624;SDS011;7912;51.376;6.126;2023-03-01T07:34:50;10.80;;;9.70;;
15624;SDS011;7912;51.376;6.126;2023-03-01T07:37:18;12.90;;;9.27;;
15624;SDS011;7912;51.376;6.126;2023-03-01T07:39:46;10.50;;;9.33;;
15624;SDS011;7912;51.376;6.126;2023-03-01T07:42:13;11.63;;;9.80;;
15624;SDS011;7912;51.376;6.126;2023-03-01T07:44:40;11.33;;;9.60;;
15624;SDS011;7912;51.376;6.126;2023-03-01T07:47:08;10.67;;;9.57;;
15624;SDS011;7912;51.376;6.126;2023-03-01T07:49:35;11.17;;;9.40;;
15624;SDS011;7912;51.376;6.126;2023-03-01T07:52:03;12.13;;;9.90;;
15624;SDS011;7912;51.376;6.126;2023-03-01T07:54:30;10.83;;;9.57;;
15624;SDS011;7912;51.376;6.126;2023-03-01T07:56:58;11.90;;;9.13;;
15624;SDS011;7912;51.376;6.126;2023-03-01T07:59:25;11.33;;;9.73;;
15624;SDS011;7912;51.376;6.126;2023-03-01T08:01:56;11.30;;;9.30;;
15624;SDS011;7912;51.376;6.126;2023-03-01T08:07:28;11.83;;;9.33;;
15624;SDS011;7912;51.376;6.126;2023-03-01T08:09:55;11.40;;;9.47;;
15624;SDS011;7912;51.376;6.126;2023-03-01T08:12:23;9.93;;;8.93;;
15624;SDS011;7912;51.376;6.126;2023-03-01T08:14:50;10.93;;;9.77;;
15624;SDS011;7912;51.376;6.126;2023-03-01T08:17:17;11.83;;;10.10;;
15624;SDS011;7912;51.376;6.126;2023-03-01T08:19:45;12.37;;;9.90;;
15624;SDS011;7912;51.376;6.126;2023-03-01T08:22:13;11.57;;;9.07;;
15624;SDS011;7912;51.376;6.126;2023-03-01T08:24:41;13.27;;;9.63;;
15624;SDS011;7912;51.376;6.126;2023-03-01T08:27:09;15.93;;;10.37;;
15624;SDS011;7912;51.376;6.126;2023-03-01T08:29:39;11.37;;;9.83;;
15624;SDS011;7912;51.376;6.126;2023-03-01T08:32:10;14.73;;;10.17;;
15624;SDS011;7912;51.376;6.126;2023-03-01T08:34:37;11.93;;;10.00;;
15624;SDS011;7912;51.376;6.126;2023-03-01T08:37:08;12.30;;;9.73;;
15624;SDS011;7912;51.376;6.126;2023-03-01T08:39:36;13.83;;;9.83;;
15624;SDS011;7912;51.376;6.126;2023-03-01T08:42:04;12.33;;;9.80;;
15624;SDS011;7912;51.376;6.126;2023-03-01T08:44:32;10.67;;;9.00;;
15624;SDS011;7912;51.376;6.126;2023-03-01T08:47:02;15.67;;;10.93;;
15624;SDS011;7912;51.376;6.126;2023-03-01T08:49:31;11.53;;;9.63;;
15624;SDS011;7912;51.376;6.126;2023-03-01T08:51:59;11.70;;;9.47;;
15624;SDS011;7912;51.376;6.126;2023-03-01T08:54:26;13.07;;;9.80;;
15624;SDS011;7912;51.376;6.126;2023-03-01T08:57:03;12.33;;;8.63;;
15624;SDS011;7912;51.376;6.126;2023-03-01T08:59:31;11.13;;;9.30;;
15624;SDS011;7912;51.376;6.126;2023-03-01T09:02:04;12.13;;;10.47;;
15624;SDS011;7912;51.376;6.126;2023-03-01T09:04:38;11.00;;;9.60;;
15624;SDS011;7912;51.376;6.126;2023-03-01T09:07:06;12.00;;;9.10;;
15624;SDS011;7912;51.376;6.126;2023-03-01T09:09:36;13.10;;;10.80;;
15624;SDS011;7912;51.376;6.126;2023-03-01T09:12:04;12.43;;;9.90;;
15624;SDS011;7912;51.376;6.126;2023-03-01T09:14:32;13.27;;;10.20;;
15624;SDS011;7912;51.376;6.126;2023-03-01T09:17:00;13.87;;;11.03;;
15624;SDS011;7912;51.376;6.126;2023-03-01T09:19:30;15.73;;;10.83;;
15624;SDS011;7912;51.376;6.126;2023-03-01T09:21:58;14.53;;;10.37;;
15624;SDS011;7912;51.376;6.126;2023-03-01T09:24:26;11.60;;;10.40;;
15624;SDS011;7912;51.376;6.126;2023-03-01T09:26:55;12.77;;;10.33;;
15624;SDS011;7912;51.376;6.126;2023-03-01T09:29:27;14.93;;;11.07;;
15624;SDS011;7912;51.376;6.126;2023-03-01T09:31:54;12.47;;;10.47;;
15624;SDS011;7912;51.376;6.126;2023-03-01T09:34:23;13.87;;;10.80;;
15624;SDS011;7912;51.376;6.126;2023-03-01T09:36:51;13.40;;;10.70;;
15624;SDS011;7912;51.376;6.126;2023-03-01T09:39:18;13.70;;;10.90;;
15624;SDS011;7912;51.376;6.126;2023-03-01T09:42:05;15.90;;;11.07;;
15624;SDS011;7912;51.376;6.126;2023-03-01T09:44:38;12.23;;;10.40;;
15624;SDS011;7912;51.376;6.126;2023-03-01T09:47:29;12.43;;;10.53;;
15624;SDS011;7912;51.376;6.126;2023-03-01T09:52:48;13.33;;;10.27;;
15624;SDS011;7912;51.376;6.126;2023-03-01T09:58:37;13.30;;;11.03;;
15624;SDS011;7912;51.376;6.126;2023-03-01T10:07:27;13.93;;;10.63;;
15624;SDS011;7912;51.376;6.126;2023-03-01T10:10:29;12.93;;;10.93;;
15624;SDS011;7912;51.376;6.126;2023-03-01T10:13:04;10.87;;;9.80;;
15624;SDS011;7912;51.376;6.126;2023-03-01T10:19:23;13.23;;;11.27;;
15624;SDS011;7912;51.376;6.126;2023-03-01T10:22:03;12.90;;;10.37;;
15624;SDS011;7912;51.376;6.126;2023-03-01T10:24:41;16.13;;;10.93;;
15624;SDS011;7912;51.376;6.126;2023-03-01T10:30:38;12.50;;;10.37;;
15624;SDS011;7912;51.376;6.126;2023-03-01T10:33:29;11.63;;;10.27;;
15624;SDS011;7912;51.376;6.126;2023-03-01T10:36:02;11.10;;;10.00;;
15624;SDS011;7912;51.376;6.126;2023-03-01T10:38:31;11.20;;;10.00;;
15624;SDS011;7912;51.376;6.126;2023-03-01T10:41:16;11.03;;;9.90;;
15624;SDS011;7912;51.376;6.126;2023-03-01T10:43:45;11.43;;;10.10;;
15624;SDS011;7912;51.376;6.126;2023-03-01T10:46:29;11.17;;;10.07;;
15624;SDS011;7912;51.376;6.126;2023-03-01T10:49:19;12.83;;;10.27;;
15624;SDS011;7912;51.376;6.126;2023-03-01T10:51:50;10.60;;;9.50;;
15624;SDS011;7912;51.376;6.126;2023-03-01T10:56:59;11.43;;;9.50;;
15624;SDS011;7912;51.376;6.126;2023-03-01T10:59:33;10.93;;;9.83;;
15624;SDS011;7912;51.376;6.126;2023-03-01T11:02:14;12.03;;;9.20;;
15624;SDS011;7912;51.376;6.126;2023-03-01T11:04:58;11.13;;;10.03;;
15624;SDS011;7912;51.376;6.126;2023-03-01T11:07:28;10.73;;;9.63;;
15624;SDS011;7912;51.376;6.126;2023-03-01T11:09:56;10.97;;;9.63;;
15624;SDS011;7912;51.376;6.126;2023-03-01T11:12:23;10.67;;;9.53;;
15624;SDS011;7912;51.376;6.126;2023-03-01T11:14:55;10.57;;;9.57;;
15624;SDS011;7912;51.376;6.126;2023-03-01T11:17:28;15.33;;;10.27;;
15624;SDS011;7912;51.376;6.126;2023-03-01T11:22:59;9.83;;;8.83;;
15624;SDS011;7912;51.376;6.126;2023-03-01T11:25:36;9.83;;;8.83;;
15624;SDS011;7912;51.376;6.126;2023-03-01T11:28:21;10.20;;;9.20;;
15624;SDS011;7912;51.376;6.126;2023-03-01T11:36:21;10.40;;;9.30;;
15624;SDS011;7912;51.376;6.126;2023-03-01T11:42:11;8.90;;;8.00;;
15624;SDS011;7912;51.376;6.126;2023-03-01T11:44:46;9.20;;;8.30;;
15624;SDS011;7912;51.376;6.126;2023-03-01T11:50:14;10.53;;;9.40;;
15624;SDS011;7912;51.376;6.126;2023-03-01T11:58:54;14.63;;;8.97;;
15624;SDS011;7912;51.376;6.126;2023-03-01T12:01:56;10.53;;;9.53;;
15624;SDS011;7912;51.376;6.126;2023-03-01T12:10:27;10.00;;;8.83;;
15624;SDS011;7912;51.376;6.126;2023-03-01T12:21:37;9.67;;;8.67;;
15624;SDS011;7912;51.376;6.126;2023-03-01T12:24:47;9.90;;;8.70;;
15624;SDS011;7912;51.376;6.126;2023-03-01T12:33:13;8.53;;;7.70;;
15624;SDS011;7912;51.376;6.126;2023-03-01T12:36:24;9.50;;;8.43;;
15624;SDS011;7912;51.376;6.126;2023-03-01T12:50:11;8.57;;;7.70;;
15624;SDS011;7912;51.376;6.126;2023-03-01T12:53:01;10.27;;;7.17;;
15624;SDS011;7912;51.376;6.126;2023-03-01T12:55:29;7.93;;;7.13;;
15624;SDS011;7912;51.376;6.126;2023-03-01T13:01:56;8.23;;;6.90;;
15624;SDS011;7912;51.376;6.126;2023-03-01T13:13:02;7.23;;;6.53;;
15624;SDS011;7912;51.376;6.126;2023-03-01T13:15:40;8.00;;;6.80;;
15624;SDS011;7912;51.376;6.126;2023-03-01T13:20:50;7.57;;;6.70;;
15624;SDS011;7912;51.376;6.126;2023-03-01T13:28:53;8.70;;;7.13;;
15624;SDS011;7912;51.376;6.126;2023-03-01T13:33:54;8.70;;;7.07;;
15624;SDS011;7912;51.376;6.126;2023-03-01T13:41:59;9.00;;;6.90;;
15624;SDS011;7912;51.376;6.126;2023-03-01T13:44:33;7.00;;;6.30;;
15624;SDS011;7912;51.376;6.126;2023-03-01T13:49:42;7.30;;;6.53;;
15624;SDS011;7912;51.376;6.126;2023-03-01T13:54:52;7.00;;;6.30;;
15624;SDS011;7912;51.376;6.126;2023-03-01T13:57:33;6.67;;;6.07;;
15624;SDS011;7912;51.376;6.126;2023-03-01T14:00:05;9.13;;;6.67;;
15624;SDS011;7912;51.376;6.126;2023-03-01T14:02:34;8.60;;;7.23;;
15624;SDS011;7912;51.376;6.126;2023-03-01T14:05:02;7.33;;;6.63;;
15624;SDS011;7912;51.376;6.126;2023-03-01T14:07:30;7.20;;;6.47;;
15624;SDS011;7912;51.376;6.126;2023-03-01T14:09:58;7.13;;;6.43;;
15624;SDS011;7912;51.376;6.126;2023-03-01T14:12:51;9.60;;;7.20;;
15624;SDS011;7912;51.376;6.126;2023-03-01T14:15:42;7.33;;;6.63;;
15624;SDS011;7912;51.376;6.126;2023-03-01T14:21:27;7.03;;;6.37;;
15624;SDS011;7912;51.376;6.126;2023-03-01T14:23:57;7.40;;;6.60;;
15624;SDS011;7912;51.376;6.126;2023-03-01T14:26:25;6.90;;;6.30;;
15624;SDS011;7912;51.376;6.126;2023-03-01T14:28:53;7.30;;;6.60;;
15624;SDS011;7912;51.376;6.126;2023-03-01T14:34:21;8.03;;;7.23;;
15624;SDS011;7912;51.376;6.126;2023-03-01T14:36:50;7.63;;;6.90;;
15624;SDS011;7912;51.376;6.126;2023-03-01T14:39:19;8.67;;;7.33;;
15624;SDS011;7912;51.376;6.126;2023-03-01T14:41:52;7.57;;;6.73;;
15624;SDS011;7912;51.376;6.126;2023-03-01T14:44:22;8.03;;;7.23;;
15624;SDS011;7912;51.376;6.126;2023-03-01T14:46:53;7.47;;;6.70;;
15624;SDS011;7912;51.376;6.126;2023-03-01T14:49:27;8.43;;;7.33;;
15624;SDS011;7912;51.376;6.126;2023-03-01T14:52:01;8.20;;;6.83;;
15624;SDS011;7912;51.376;6.126;2023-03-01T14:54:43;7.60;;;6.60;;
15624;SDS011;7912;51.376;6.126;2023-03-01T14:57:23;7.63;;;6.83;;
15624;SDS011;7912;51.376;6.126;2023-03-01T14:59:57;7.87;;;7.00;;
15624;SDS011;7912;51.376;6.126;2023-03-01T15:02:29;10.03;;;7.73;;
15624;SDS011;7912;51.376;6.126;2023-03-01T15:04:59;8.37;;;7.47;;
15624;SDS011;7912;51.376;6.126;2023-03-01T15:07:36;8.77;;;7.23;;
15624;SDS011;7912;51.376;6.126;2023-03-01T15:10:14;7.10;;;6.40;;
15624;SDS011;7912;51.376;6.126;2023-03-01T15:12:51;7.80;;;7.03;;
15624;SDS011;7912;51.376;6.126;2023-03-01T15:15:30;8.33;;;7.23;;
15624;SDS011;7912;51.376;6.126;2023-03-01T15:18:25;9.23;;;6.97;;
15624;SDS011;7912;51.376;6.126;2023-03-01T15:20:56;7.63;;;6.93;;
15624;SDS011;7912;51.376;6.126;2023-03-01T15:26:42;9.97;;;7.43;;
15624;SDS011;7912;51.376;6.126;2023-03-01T15:29:17;8.80;;;7.73;;
15624;SDS011;7912;51.376;6.126;2023-03-01T15:31:56;8.37;;;7.47;;
15624;SDS011;7912;51.376;6.126;2023-03-01T15:34:51;7.63;;;6.87;;
15624;SDS011;7912;51.376;6.126;2023-03-01T15:40:20;9.00;;;7.30;;
15624;SDS011;7912;51.376;6.126;2023-03-01T15:43:04;9.63;;;8.00;;
15624;SDS011;7912;51.376;6.126;2023-03-01T15:45:33;8.43;;;7.60;;
15624;SDS011;7912;51.376;6.126;2023-03-01T15:48:01;9.00;;;7.60;;
15624;SDS011;7912;51.376;6.126;2023-03-01T15:50:41;8.70;;;7.80;;
15624;SDS011;7912;51.376;6.126;2023-03-01T15:53:10;9.50;;;8.07;;
15624;SDS011;7912;51.376;6.126;2023-03-01T15:55:43;10.27;;;8.47;;
15624;SDS011;7912;51.376;6.126;2023-03-01T15:58:22;10.13;;;8.70;;
15624;SDS011;7912;51.376;6.126;2023-03-01T16:00:51;9.80;;;8.20;;
15624;SDS011;7912;51.376;6.126;2023-03-01T16:03:29;9.77;;;7.97;;
15624;SDS011;7912;51.376;6.126;2023-03-01T16:05:56;10.83;;;8.73;;
15624;SDS011;7912;51.376;6.126;2023-03-01T16:08:24;9.80;;;8.80;;
15624;SDS011;7912;51.376;6.126;2023-03-01T16:10:51;11.03;;;8.97;;
15624;SDS011;7912;51.376;6.126;2023-03-01T16:13:20;10.63;;;9.47;;
15624;SDS011;7912;51.376;6.126;2023-03-01T16:15:48;10.70;;;9.00;;
15624;SDS011;7912;51.376;6.126;2023-03-01T16:18:15;11.80;;;7.97;;
15624;SDS011;7912;51.376;6.126;2023-03-01T16:20:43;10.20;;;8.03;;
15624;SDS011;7912;51.376;6.126;2023-03-01T16:23:10;9.80;;;8.80;;
15624;SDS011;7912;51.376;6.126;2023-03-01T16:25:38;9.13;;;8.13;;
15624;SDS011;7912;51.376;6.126;2023-03-01T16:28:05;12.90;;;9.33;;
15624;SDS011;7912;51.376;6.126;2023-03-01T16:30:39;10.23;;;7.90;;
15624;SDS011;7912;51.376;6.126;2023-03-01T16:33:11;11.00;;;9.20;;
15624;SDS011;7912;51.376;6.126;2023-03-01T16:35:59;11.30;;;8.57;;
15624;SDS011;7912;51.376;6.126;2023-03-01T16:38:33;9.97;;;8.40;;
15624;SDS011;7912;51.376;6.126;2023-03-01T16:41:01;10.77;;;7.97;;
15624;SDS011;7912;51.376;6.126;2023-03-01T16:43:29;9.33;;;7.77;;
15624;SDS011;7912;51.376;6.126;2023-03-01T16:45:57;9.90;;;7.77;;
15624;SDS011;7912;51.376;6.126;2023-03-01T16:48:25;9.23;;;8.23;;
15624;SDS011;7912;51.376;6.126;2023-03-01T16:50:59;10.37;;;8.17;;
15624;SDS011;7912;51.376;6.126;2023-03-01T16:53:28;9.17;;;7.83;;
15624;SDS011;7912;51.376;6.126;2023-03-01T16:55:56;9.10;;;8.20;;
15624;SDS011;7912;51.376;6.126;2023-03-01T16:58:25;12.13;;;8.80;;
15624;SDS011;7912;51.376;6.126;2023-03-01T17:00:52;8.63;;;7.73;;
15624;SDS011;7912;51.376;6.126;2023-03-01T17:03:22;9.63;;;8.00;;
15624;SDS011;7912;51.376;6.126;2023-03-01T17:05:55;9.20;;;7.57;;
15624;SDS011;7912;51.376;6.126;2023-03-01T17:08:23;10.07;;;8.37;;
15624;SDS011;7912;51.376;6.126;2023-03-01T17:10:50;12.03;;;8.93;;
15624;SDS011;7912;51.376;6.126;2023-03-01T17:13:18;8.73;;;7.83;;
15624;SDS011;7912;51.376;6.126;2023-03-01T17:15:45;9.80;;;7.47;;
15624;SDS011;7912;51.376;6.126;2023-03-01T17:18:12;9.43;;;7.87;;
15624;SDS011;7912;51.376;6.126;2023-03-01T17:20:40;8.53;;;7.40;;
15624;SDS011;7912;51.376;6.126;2023-03-01T17:23:07;9.27;;;7.87;;
15624;SDS011;7912;51.376;6.126;2023-03-01T17:25:34;8.83;;;7.90;;
15624;SDS011;7912;51.376;6.126;2023-03-01T17:28:01;9.33;;;8.03;;
15624;SDS011;7912;51.376;6.126;2023-03-01T17:30:29;8.57;;;7.67;;
15624;SDS011;7912;51.376;6.126;2023-03-01T17:33:00;11.20;;;7.50;;
15624;SDS011;7912;51.376;6.126;2023-03-01T17:35:28;9.50;;;8.20;;
15624;SDS011;7912;51.376;6.126;2023-03-01T17:37:56;11.93;;;8.23;;
15624;SDS011;7912;51.376;6.126;2023-03-01T17:40:23;9.37;;;7.47;;
15624;SDS011;7912;51.376;6.126;2023-03-01T17:42:51;10.33;;;8.17;;
15624;SDS011;7912;51.376;6.126;2023-03-01T17:45:18;10.43;;;8.03;;
15624;SDS011;7912;51.376;6.126;2023-03-01T17:47:45;9.07;;;8.07;;
15624;SDS011;7912;51.376;6.126;2023-03-01T17:50:13;8.40;;;7.37;;
15624;SDS011;7912;51.376;6.126;2023-03-01T17:52:40;9.50;;;7.50;;
15624;SDS011;7912;51.376;6.126;2023-03-01T17:55:08;11.27;;;7.63;;
15624;SDS011;7912;51.376;6.126;2023-03-01T17:57:39;9.17;;;7.93;;
15624;SDS011;7912;51.376;6.126;2023-03-01T18:00:11;8.93;;;7.80;;
15624;SDS011;7912;51.376;6.126;2023-03-01T18:02:41;8.17;;;7.00;;
15624;SDS011;7912;51.376;6.126;2023-03-01T18:05:09;8.90;;;7.60;;
15624;SDS011;7912;51.376;6.126;2023-03-01T18:07:37;8.47;;;7.13;;
15624;SDS011;7912;51.376;6.126;2023-03-01T18:10:04;10.53;;;7.80;;
15624;SDS011;7912;51.376;6.126;2023-03-01T18:12:32;8.83;;;7.23;;
15624;SDS011;7912;51.376;6.126;2023-03-01T18:14:59;8.50;;;6.80;;
15624;SDS011;7912;51.376;6.126;2023-03-01T18:17:27;9.93;;;7.60;;
15624;SDS011;7912;51.376;6.126;2023-03-01T18:19:54;8.80;;;7.40;;
15624;SDS011;7912;51.376;6.126;2023-03-01T18:22:22;10.43;;;7.83;;